Time;durP1;ratioP1;P1;durP2;ratioP2;P2;SDS_P1;SDS_P2;PMS_P1;PMS_P2;Temp;Humidity;BMP_temperature;BMP_pressure;BME280_temperature;BME280_humidity;BME280_pressure;Samples;Min_cycle;Max_cycle;Signal;HPM_P1;HPM_P2
2023/05/30 00:01:52;;;;;;;7.90;2.30;;;;;;;;;;5031430;28;20442;-62
2023/05/30 00:04:21;;;;;;;5.83;2.70;;;;;;;;;;5029253;28;20484;-61
2023/05/30 00:06:54;;;;;;;9.27;2.27;;;;;;;;;;5029813;28;20257;-61
2023/05/30 00:09:24;;;;;;;6.33;2.70;;;;;;;;;;5029712;28;20474;-62
2023/05/30 00:11:54;;;;;;;5.90;2.30;;;;;;;;;;5029814;28;20557;-62
2023/05/30 00:14:23;;;;;;;8.40;2.37;;;;;;;;;;5028900;28;20492;-62
2023/05/30 00:16:51;;;;;;;10.43;2.50;;;;;;;;;;5029384;28;20207;-63
2023/05/30 00:19:19;;;;;;;7.03;2.70;;;;;;;;;;5028670;28;20205;-61
2023/05/30 00:21:47;;;;;;;11.63;4.70;;;;;;;;;;5029416;28;20549;-61
2023/05/30 00:24:13;;;;;;;12.73;7.03;;;;;;;;;;5029682;28;20432;-61
2023/05/30 00:26:40;;;;;;;10.23;5.00;;;;;;;;;;5029289;28;20196;-61
2023/05/30 00:29:07;;;;;;;10.07;5.10;;;;;;;;;;5028894;28;20470;-61
2023/05/30 00:31:34;;;;;;;11.33;4.60;;;;;;;;;;5029263;28;20430;-61
2023/05/30 00:34:01;;;;;;;12.00;4.77;;;;;;;;;;5028980;28;20198;-62
2023/05/30 00:36:28;;;;;;;9.00;3.90;;;;;;;;;;5028929;28;20222;-61
2023/05/30 00:38:57;;;;;;;10.43;3.57;;;;;;;;;;5028483;28;20511;-62
2023/05/30 00:41:37;;;;;;;9.20;3.57;;;;;;;;;;5008693;28;20441;-61
2023/05/30 00:44:18;;;;;;;6.40;3.30;;;;;;;;;;5011678;28;20457;-62
2023/05/30 00:46:45;;;;;;;11.17;3.27;;;;;;;;;;5027761;28;20308;-61
2023/05/30 00:49:11;;;;;;;9.97;3.50;;;;;;;;;;5028861;28;21036;-61
2023/05/30 00:51:41;;;;;;;7.13;2.77;;;;;;;;;;5010787;28;20983;-61
2023/05/30 00:54:08;;;;;;;7.50;3.00;;;;;;;;;;5036687;28;20433;-61
2023/05/30 00:56:35;;;;;;;6.43;2.80;;;;;;;;;;4996195;28;20438;-61
2023/05/30 00:59:02;;;;;;;8.50;2.70;;;;;;;;;;5010757;28;20191;-61
2023/05/30 01:01:29;;;;;;;8.03;2.90;;;;;;;;;;5011071;28;20640;-61
2023/05/30 01:03:57;;;;;;;7.40;2.93;;;;;;;;;;5028658;28;20521;-62
2023/05/30 01:06:27;;;;;;;8.80;2.90;;;;;;;;;;5011238;28;20516;-61
2023/05/30 01:08:54;;;;;;;11.03;2.77;;;;;;;;;;5028877;28;20535;-61
2023/05/30 01:11:21;;;;;;;11.07;3.23;;;;;;;;;;5027728;28;20188;-61
2023/05/30 01:13:57;;;;;;;8.40;3.03;;;;;;;;;;5010267;28;20442;-62
2023/05/30 01:16:25;;;;;;;7.80;3.00;;;;;;;;;;5011125;28;20646;-62
2023/05/30 01:18:58;;;;;;;6.37;3.10;;;;;;;;;;5010389;28;20528;-61
2023/05/30 01:21:25;;;;;;;8.80;3.00;;;;;;;;;;5010986;28;20472;-61
2023/05/30 01:24:00;;;;;;;9.00;2.93;;;;;;;;;;5011153;28;20469;-61
2023/05/30 01:26:33;;;;;;;8.63;2.77;;;;;;;;;;4993920;28;20536;-61
2023/05/30 01:29:02;;;;;;;7.77;2.80;;;;;;;;;;5027967;28;20520;-62
2023/05/30 01:31:29;;;;;;;10.03;3.10;;;;;;;;;;5011050;28;20426;-62
2023/05/30 01:33:56;;;;;;;9.43;3.37;;;;;;;;;;5027504;28;20473;-61
2023/05/30 01:36:23;;;;;;;7.43;3.03;;;;;;;;;;5010345;28;20473;-61
2023/05/30 01:38:49;;;;;;;5.90;3.13;;;;;;;;;;5028392;28;20438;-61
2023/05/30 01:41:42;;;;;;;5.40;2.67;;;;;;;;;;5010503;28;20798;-61
2023/05/30 02:16:39;;;;;;;7.87;3.00;;;;;;;;;;5027576;28;20431;-62
2023/05/30 02:19:15;;;;;;;9.33;3.20;;;;;;;;;;5026034;28;20446;-63
2023/05/30 02:21:42;;;;;;;6.87;2.80;;;;;;;;;;5027515;28;20434;-61
2023/05/30 02:24:10;;;;;;;8.30;2.90;;;;;;;;;;5010161;28;20877;-62
2023/05/30 02:26:36;;;;;;;9.50;3.20;;;;;;;;;;5027978;28;20440;-61
2023/05/30 02:29:03;;;;;;;12.20;3.20;;;;;;;;;;5027212;28;20493;-61
2023/05/30 02:31:30;;;;;;;9.47;3.07;;;;;;;;;;5009956;28;20437;-61
2023/05/30 02:33:57;;;;;;;8.77;3.17;;;;;;;;;;5027934;28;21019;-62
2023/05/30 02:36:24;;;;;;;12.53;3.17;;;;;;;;;;5009901;28;21022;-61
2023/05/30 02:38:51;;;;;;;10.00;3.67;;;;;;;;;;5030113;28;21027;-62
2023/05/30 02:41:18;;;;;;;17.37;5.70;;;;;;;;;;5013453;28;20571;-61
2023/05/30 02:43:45;;;;;;;10.17;3.70;;;;;;;;;;5031042;28;20493;-61
2023/05/30 02:46:15;;;;;;;19.13;5.40;;;;;;;;;;5013536;28;20446;-61
2023/05/30 02:48:41;;;;;;;16.63;5.00;;;;;;;;;;5013284;28;20461;-61
2023/05/30 02:51:08;;;;;;;17.43;4.43;;;;;;;;;;5013424;28;20446;-62
2023/05/30 02:53:35;;;;;;;19.47;5.10;;;;;;;;;;5013106;28;20445;-62
2023/05/30 02:56:02;;;;;;;14.63;4.27;;;;;;;;;;5012885;28;20441;-62
2023/05/30 02:58:28;;;;;;;20.23;5.07;;;;;;;;;;5030913;28;20430;-61
2023/05/30 03:01:00;;;;;;;15.63;4.87;;;;;;;;;;5012972;28;20932;-62
2023/05/30 03:03:28;;;;;;;14.13;4.67;;;;;;;;;;5029556;28;20488;-61
2023/05/30 03:06:04;;;;;;;13.73;4.77;;;;;;;;;;5013201;28;20998;-61
2023/05/30 03:08:44;;;;;;;16.23;4.47;;;;;;;;;;5013064;28;20473;-61
2023/05/30 03:11:11;;;;;;;12.40;4.10;;;;;;;;;;5012012;28;20549;-61
2023/05/30 03:13:39;;;;;;;12.50;4.33;;;;;;;;;;5012887;28;20442;-61
2023/05/30 03:16:07;;;;;;;10.87;4.03;;;;;;;;;;5012688;28;20482;-62
2023/05/30 03:18:34;;;;;;;15.40;4.20;;;;;;;;;;5042690;28;20809;-62
2023/05/30 03:21:01;;;;;;;8.03;3.67;;;;;;;;;;5038005;28;20446;-62
2023/05/30 03:23:31;;;;;;;13.13;4.13;;;;;;;;;;5028366;28;20541;-62
2023/05/30 03:25:58;;;;;;;11.33;3.50;;;;;;;;;;5009752;28;20446;-62
2023/05/30 03:28:26;;;;;;;12.87;3.87;;;;;;;;;;5007742;28;20460;-63
2023/05/30 03:31:16;;;;;;;10.40;3.60;;;;;;;;;;5014101;28;20963;-62
2023/05/30 03:33:44;;;;;;;10.97;3.57;;;;;;;;;;5026796;28;20438;-63
2023/05/30 03:36:13;;;;;;;8.50;3.43;;;;;;;;;;5009695;28;20533;-62
2023/05/30 03:38:41;;;;;;;9.07;3.67;;;;;;;;;;5010119;28;20499;-62
2023/05/30 03:41:08;;;;;;;10.17;4.20;;;;;;;;;;5009591;28;20199;-63
2023/05/30 03:43:35;;;;;;;9.50;3.50;;;;;;;;;;5009695;28;20464;-62
2023/05/30 03:46:03;;;;;;;9.10;3.63;;;;;;;;;;5015174;28;20531;-63
2023/05/30 03:48:31;;;;;;;8.10;3.33;;;;;;;;;;5008857;28;20227;-62
2023/05/30 03:50:59;;;;;;;9.67;3.30;;;;;;;;;;5009569;28;20867;-61
2023/05/30 03:53:26;;;;;;;12.50;3.60;;;;;;;;;;5011931;28;20230;-62
2023/05/30 03:55:56;;;;;;;15.00;4.50;;;;;;;;;;5037646;28;20188;-63
2023/05/30 03:58:23;;;;;;;10.13;4.30;;;;;;;;;;5027986;28;20959;-61
2023/05/30 04:00:50;;;;;;;14.93;3.83;;;;;;;;;;5009714;28;20198;-61
2023/05/30 04:03:22;;;;;;;11.33;4.17;;;;;;;;;;5028250;28;20206;-62
2023/05/30 04:05:50;;;;;;;7.57;3.30;;;;;;;;;;5009669;28;20248;-62
2023/05/30 04:08:16;;;;;;;13.37;3.40;;;;;;;;;;5027722;28;20278;-62
2023/05/30 04:10:46;;;;;;;10.27;3.37;;;;;;;;;;5010292;28;20230;-61
2023/05/30 04:13:13;;;;;;;10.07;3.30;;;;;;;;;;5026487;28;20194;-62
2023/05/30 04:15:41;;;;;;;10.63;4.20;;;;;;;;;;5009475;28;20211;-62
2023/05/30 04:18:10;;;;;;;9.53;3.63;;;;;;;;;;5005802;28;20228;-61
2023/05/30 04:20:36;;;;;;;7.50;3.07;;;;;;;;;;5013393;28;20183;-62
2023/05/30 04:23:03;;;;;;;9.27;3.20;;;;;;;;;;5014330;28;20243;-61
2023/05/30 04:25:31;;;;;;;8.93;3.30;;;;;;;;;;5022383;28;20199;-62
2023/05/30 04:27:58;;;;;;;7.93;3.63;;;;;;;;;;5004481;28;20204;-62
2023/05/30 04:30:26;;;;;;;8.40;3.30;;;;;;;;;;4995228;28;20221;-61
2023/05/30 04:32:56;;;;;;;10.13;3.50;;;;;;;;;;5006650;28;20190;-61
2023/05/30 04:35:23;;;;;;;9.67;3.17;;;;;;;;;;5002567;28;20195;-60
2023/05/30 04:37:50;;;;;;;8.13;3.10;;;;;;;;;;5009141;28;20572;-60
2023/05/30 04:40:17;;;;;;;8.27;3.10;;;;;;;;;;5007517;28;20289;-61
2023/05/30 04:42:51;;;;;;;11.17;3.57;;;;;;;;;;5003900;28;20311;-60
2023/05/30 04:45:26;;;;;;;11.67;3.23;;;;;;;;;;5024130;28;20184;-60
2023/05/30 04:47:54;;;;;;;13.40;3.37;;;;;;;;;;5007553;28;20558;-61
2023/05/30 04:50:24;;;;;;;15.87;3.83;;;;;;;;;;5007936;28;20214;-60
2023/05/30 04:52:51;;;;;;;11.20;3.17;;;;;;;;;;5009175;28;20297;-62
2023/05/30 04:55:18;;;;;;;9.97;2.77;;;;;;;;;;5017946;28;20262;-61
2023/05/30 04:57:44;;;;;;;12.20;3.20;;;;;;;;;;5008325;28;20223;-61
2023/05/30 05:00:14;;;;;;;15.63;3.40;;;;;;;;;;5005117;28;20715;-60
2023/05/30 05:02:42;;;;;;;16.60;3.10;;;;;;;;;;5008883;28;20196;-60
2023/05/30 05:05:10;;;;;;;12.90;3.40;;;;;;;;;;5007432;28;20769;-61
2023/05/30 05:07:41;;;;;;;8.80;2.67;;;;;;;;;;5008458;28;20188;-61
2023/05/30 05:10:09;;;;;;;12.93;3.10;;;;;;;;;;5010007;28;20255;-61
2023/05/30 05:12:36;;;;;;;11.47;2.80;;;;;;;;;;5018257;28;20549;-62
2023/05/30 05:15:02;;;;;;;11.30;3.43;;;;;;;;;;5014907;28;20193;-61
2023/05/30 05:17:30;;;;;;;9.30;2.60;;;;;;;;;;4995724;28;20278;-61
2023/05/30 05:19:57;;;;;;;10.37;2.70;;;;;;;;;;5007977;28;20610;-62
2023/05/30 05:22:27;;;;;;;13.83;3.30;;;;;;;;;;5001088;28;20202;-65
2023/05/30 05:24:58;;;;;;;11.77;3.10;;;;;;;;;;5001435;28;20196;-61
2023/05/30 05:27:26;;;;;;;9.10;2.40;;;;;;;;;;5020271;28;20230;-61
2023/05/30 05:29:52;;;;;;;11.47;2.27;;;;;;;;;;5007481;28;20216;-61
2023/05/30 05:32:19;;;;;;;8.50;2.17;;;;;;;;;;5007026;28;20196;-61
2023/05/30 05:34:46;;;;;;;9.10;2.80;;;;;;;;;;5009416;28;20265;-60
2023/05/30 05:37:13;;;;;;;8.10;2.10;;;;;;;;;;5007238;28;20192;-61
2023/05/30 05:39:40;;;;;;;12.57;2.13;;;;;;;;;;5009125;28;20211;-61
2023/05/30 05:42:07;;;;;;;10.00;2.37;;;;;;;;;;5004281;28;20283;-61
2023/05/30 05:44:34;;;;;;;10.57;2.60;;;;;;;;;;5007215;28;20211;-60
2023/05/30 05:47:01;;;;;;;10.77;2.67;;;;;;;;;;5006660;28;20207;-61
2023/05/30 05:49:28;;;;;;;9.23;2.60;;;;;;;;;;5006805;28;20698;-60
2023/05/30 05:51:55;;;;;;;12.17;2.90;;;;;;;;;;5003241;28;20197;-61
2023/05/30 05:54:21;;;;;;;9.80;2.70;;;;;;;;;;5010552;28;20199;-61
2023/05/30 05:56:48;;;;;;;8.97;2.30;;;;;;;;;;5006811;28;20196;-61
2023/05/30 05:59:15;;;;;;;8.07;2.17;;;;;;;;;;5007701;28;20194;-63
2023/05/30 06:01:42;;;;;;;7.73;1.73;;;;;;;;;;5007601;28;20183;-61
2023/05/30 06:04:11;;;;;;;7.30;1.43;;;;;;;;;;5007556;28;20399;-60
2023/05/30 06:06:38;;;;;;;5.47;1.50;;;;;;;;;;5008005;28;20279;-60
2023/05/30 06:09:04;;;;;;;6.43;1.50;;;;;;;;;;5007719;28;20188;-60
2023/05/30 06:11:31;;;;;;;5.87;1.50;;;;;;;;;;5006792;28;20279;-60
2023/05/30 06:13:58;;;;;;;2.77;0.93;;;;;;;;;;5010978;28;20192;-60
2023/05/30 06:16:26;;;;;;;5.67;1.60;;;;;;;;;;5011563;28;20242;-60
2023/05/30 06:18:53;;;;;;;5.73;1.67;;;;;;;;;;5027614;28;20321;-60
2023/05/30 06:21:20;;;;;;;5.87;1.20;;;;;;;;;;5031645;28;20241;-60
2023/05/30 06:23:47;;;;;;;5.13;1.37;;;;;;;;;;5031086;28;20200;-63
2023/05/30 06:26:13;;;;;;;6.30;1.30;;;;;;;;;;5031386;28;20202;-60
2023/05/30 06:28:40;;;;;;;9.70;1.70;;;;;;;;;;5028048;28;20231;-61
2023/05/30 06:31:07;;;;;;;6.13;1.27;;;;;;;;;;5030985;28;20219;-58
2023/05/30 06:33:34;;;;;;;6.47;1.60;;;;;;;;;;5030825;28;20195;-59
2023/05/30 06:36:00;;;;;;;5.20;1.13;;;;;;;;;;5043705;28;20187;-59
2023/05/30 06:38:27;;;;;;;3.50;1.30;;;;;;;;;;5042264;28;20202;-59
2023/05/30 06:40:54;;;;;;;7.80;1.20;;;;;;;;;;5031233;28;20187;-60
2023/05/30 06:43:21;;;;;;;8.17;1.40;;;;;;;;;;5037976;28;20747;-59
2023/05/30 06:45:49;;;;;;;11.30;1.47;;;;;;;;;;5049401;28;20209;-60
2023/05/30 06:48:16;;;;;;;5.87;1.20;;;;;;;;;;5043725;28;20192;-60
2023/05/30 06:50:43;;;;;;;7.30;1.27;;;;;;;;;;5030916;28;20579;-59
2023/05/30 06:53:10;;;;;;;4.87;1.20;;;;;;;;;;5029904;28;20194;-60
2023/05/30 06:55:38;;;;;;;8.90;1.70;;;;;;;;;;5032314;28;20187;-60
2023/05/30 06:58:05;;;;;;;8.37;1.23;;;;;;;;;;5049992;28;20671;-59
2023/05/30 07:00:31;;;;;;;10.17;1.40;;;;;;;;;;5050399;28;20276;-59
2023/05/30 07:03:00;;;;;;;6.63;1.50;;;;;;;;;;5045952;28;20246;-59
2023/05/30 07:05:28;;;;;;;4.47;1.37;;;;;;;;;;5030433;28;20191;-59
2023/05/30 07:07:55;;;;;;;4.10;1.37;;;;;;;;;;5030113;28;20717;-59
2023/05/30 07:10:22;;;;;;;5.33;1.47;;;;;;;;;;5019138;28;20206;-59
2023/05/30 07:12:50;;;;;;;6.53;1.20;;;;;;;;;;5046610;28;20294;-62
2023/05/30 07:15:17;;;;;;;15.60;1.93;;;;;;;;;;5030700;28;20685;-61
2023/05/30 07:17:44;;;;;;;15.47;1.80;;;;;;;;;;5029872;28;20310;-60
2023/05/30 07:20:11;;;;;;;6.00;1.40;;;;;;;;;;5030268;28;20190;-63
2023/05/30 07:22:38;;;;;;;5.00;1.57;;;;;;;;;;5030127;28;20261;-60
2023/05/30 07:25:06;;;;;;;4.73;1.30;;;;;;;;;;5029336;28;20621;-60
2023/05/30 07:27:33;;;;;;;6.17;1.60;;;;;;;;;;5012699;28;20187;-60
2023/05/30 07:30:03;;;;;;;5.97;1.50;;;;;;;;;;5029533;28;20210;-63
2023/05/30 07:32:30;;;;;;;6.60;1.70;;;;;;;;;;5029259;28;20231;-62
2023/05/30 07:34:57;;;;;;;4.07;1.77;;;;;;;;;;5030233;28;20199;-51
2023/05/30 07:37:25;;;;;;;7.67;1.40;;;;;;;;;;5012214;28;20535;-51
2023/05/30 07:39:52;;;;;;;2.97;1.20;;;;;;;;;;5028057;28;20188;-53
2023/05/30 07:42:19;;;;;;;4.80;1.60;;;;;;;;;;5029111;28;20682;-60
2023/05/30 07:44:45;;;;;;;5.50;1.30;;;;;;;;;;5029045;28;20900;-63
2023/05/30 07:47:12;;;;;;;2.93;1.30;;;;;;;;;;5029489;28;20524;-61
2023/05/30 07:49:40;;;;;;;3.40;1.20;;;;;;;;;;5029205;28;20226;-60
2023/05/30 07:52:09;;;;;;;2.73;1.20;;;;;;;;;;5012065;28;20191;-60
2023/05/30 07:54:35;;;;;;;2.57;1.20;;;;;;;;;;5046786;28;20190;-60
2023/05/30 07:57:02;;;;;;;4.30;1.30;;;;;;;;;;5049548;28;20183;-61
2023/05/30 07:59:29;;;;;;;3.90;1.70;;;;;;;;;;5032390;28;20250;-61
2023/05/30 08:01:56;;;;;;;3.97;1.60;;;;;;;;;;5029360;28;20185;-61
2023/05/30 08:04:23;;;;;;;5.80;1.60;;;;;;;;;;5028956;28;20208;-61
2023/05/30 08:07:08;;;;;;;5.30;1.30;;;;;;;;;;5028968;28;20210;-61
2023/05/30 08:09:36;;;;;;;2.93;1.57;;;;;;;;;;5028970;28;20674;-62
2023/05/30 08:12:21;;;;;;;6.17;1.70;;;;;;;;;;5010878;28;20230;-61
2023/05/30 08:14:48;;;;;;;5.43;1.60;;;;;;;;;;5028421;28;20195;-62
2023/05/30 08:17:16;;;;;;;5.93;1.40;;;;;;;;;;5029414;28;20220;-61
2023/05/30 08:19:43;;;;;;;2.40;1.33;;;;;;;;;;5011175;28;20196;-62
2023/05/30 08:22:12;;;;;;;3.10;1.30;;;;;;;;;;5029413;28;20191;-62
2023/05/30 08:24:41;;;;;;;4.90;1.37;;;;;;;;;;5029233;28;20372;-62
2023/05/30 08:27:10;;;;;;;4.17;1.37;;;;;;;;;;5028754;28;20197;-62
2023/05/30 08:29:38;;;;;;;4.20;1.30;;;;;;;;;;5028593;28;20193;-62
2023/05/30 08:32:05;;;;;;;3.33;1.40;;;;;;;;;;5010858;28;20201;-62
2023/05/30 08:34:32;;;;;;;3.30;1.40;;;;;;;;;;5027097;28;20259;-62
2023/05/30 08:36:59;;;;;;;3.83;1.57;;;;;;;;;;5027727;28;20199;-62
2023/05/30 08:39:26;;;;;;;5.10;1.30;;;;;;;;;;5028605;28;20906;-62
2023/05/30 08:41:53;;;;;;;1.93;1.27;;;;;;;;;;5011273;28;20282;-62
2023/05/30 08:44:19;;;;;;;8.00;1.60;;;;;;;;;;5032059;28;20188;-59
2023/05/30 08:47:07;;;;;;;4.50;1.20;;;;;;;;;;5027304;28;20258;-61
2023/05/30 08:49:34;;;;;;;3.20;1.30;;;;;;;;;;5028207;28;20187;-61
2023/05/30 08:52:01;;;;;;;3.90;1.30;;;;;;;;;;5010906;28;21036;-61
2023/05/30 08:54:47;;;;;;;3.43;1.20;;;;;;;;;;5020964;28;20239;-62
2023/05/30 08:57:14;;;;;;;2.57;1.20;;;;;;;;;;5048549;28;20194;-61
2023/05/30 08:59:41;;;;;;;4.87;1.20;;;;;;;;;;5035544;28;20248;-61
2023/05/30 09:02:08;;;;;;;4.30;1.43;;;;;;;;;;5011207;28;20554;-61
2023/05/30 09:04:56;;;;;;;4.67;1.20;;;;;;;;;;5028219;28;20266;-62
2023/05/30 09:07:23;;;;;;;5.43;1.43;;;;;;;;;;5028043;28;20262;-60
2023/05/30 09:10:07;;;;;;;6.27;1.40;;;;;;;;;;5027677;28;20218;-61
2023/05/30 09:12:35;;;;;;;5.83;1.43;;;;;;;;;;5028402;28;20195;-61
2023/05/30 09:15:02;;;;;;;4.03;1.53;;;;;;;;;;5028019;28;20230;-61
2023/05/30 09:17:29;;;;;;;3.27;1.50;;;;;;;;;;5027815;28;20232;-60
2023/05/30 09:19:56;;;;;;;3.70;1.43;;;;;;;;;;5028124;28;20216;-61
2023/05/30 09:22:23;;;;;;;4.57;1.40;;;;;;;;;;5010593;28;20212;-62
2023/05/30 09:24:53;;;;;;;6.70;1.30;;;;;;;;;;5010108;28;20195;-61
2023/05/30 09:27:20;;;;;;;4.17;1.27;;;;;;;;;;5028051;28;20633;-62
2023/05/30 09:29:47;;;;;;;6.47;1.57;;;;;;;;;;5027193;28;20208;-62
2023/05/30 09:32:14;;;;;;;5.70;1.50;;;;;;;;;;5027474;28;20220;-61
2023/05/30 09:34:40;;;;;;;4.17;1.30;;;;;;;;;;5024137;28;20326;-61
2023/05/30 09:37:25;;;;;;;2.37;1.40;;;;;;;;;;4993345;28;20180;-61
2023/05/30 09:40:02;;;;;;;4.10;1.20;;;;;;;;;;5022589;28;20233;-61
2023/05/30 09:42:38;;;;;;;10.30;2.00;;;;;;;;;;5027468;28;20278;-62
2023/05/30 09:45:06;;;;;;;4.83;1.60;;;;;;;;;;5027903;28;20253;-62
2023/05/30 09:47:40;;;;;;;3.60;1.43;;;;;;;;;;5030140;28;20265;-61
2023/05/30 09:50:07;;;;;;;7.77;1.70;;;;;;;;;;5032220;28;20199;-61
2023/05/30 09:52:52;;;;;;;4.03;1.40;;;;;;;;;;5032053;28;20163;-62
2023/05/30 09:55:19;;;;;;;3.07;1.13;;;;;;;;;;5023926;28;20555;-61
2023/05/30 09:57:49;;;;;;;4.87;1.30;;;;;;;;;;5049314;28;20907;-62
2023/05/30 10:00:17;;;;;;;4.20;1.30;;;;;;;;;;5034403;28;20197;-61
2023/05/30 10:02:44;;;;;;;6.37;1.40;;;;;;;;;;5031608;28;20547;-62
2023/05/30 10:05:21;;;;;;;3.80;1.50;;;;;;;;;;5013432;28;20222;-63
2023/05/30 10:07:48;;;;;;;4.17;1.50;;;;;;;;;;5050759;28;20186;-62
2023/05/30 10:10:15;;;;;;;3.43;1.37;;;;;;;;;;5033053;28;20184;-62
2023/05/30 10:12:43;;;;;;;4.17;1.50;;;;;;;;;;5030727;28;20735;-64
2023/05/30 10:15:10;;;;;;;5.47;2.10;;;;;;;;;;5031094;28;20249;-62
2023/05/30 10:18:07;;;;;;;8.13;2.00;;;;;;;;;;5031202;28;20220;-64
2023/05/30 10:20:37;;;;;;;6.27;1.80;;;;;;;;;;5027627;28;20251;-61
2023/05/30 10:23:21;;;;;;;8.00;1.50;;;;;;;;;;5032440;28;20179;-61
2023/05/30 10:25:49;;;;;;;4.73;1.60;;;;;;;;;;5030541;28;20206;-63
2023/05/30 10:28:18;;;;;;;3.83;1.40;;;;;;;;;;5029353;28;20203;-63
2023/05/30 10:30:44;;;;;;;5.43;1.80;;;;;;;;;;5030885;28;20571;-63
2023/05/30 10:33:12;;;;;;;6.23;1.63;;;;;;;;;;5032144;28;20226;-61
2023/05/30 10:35:38;;;;;;;10.37;2.93;;;;;;;;;;5013185;28;20215;-62
2023/05/30 10:38:06;;;;;;;4.53;1.47;;;;;;;;;;5031097;28;20190;-62
2023/05/30 10:40:43;;;;;;;4.03;1.47;;;;;;;;;;5011152;28;20195;-63
2023/05/30 10:43:21;;;;;;;4.50;1.90;;;;;;;;;;5015807;28;20206;-61
2023/05/30 10:46:00;;;;;;;7.47;1.60;;;;;;;;;;5018123;28;20187;-61
2023/05/30 10:48:44;;;;;;;4.63;1.70;;;;;;;;;;5032489;28;20187;-61
2023/05/30 10:51:11;;;;;;;6.47;1.90;;;;;;;;;;5021279;28;20652;-61
2023/05/30 10:53:48;;;;;;;4.93;1.50;;;;;;;;;;5035497;28;20181;-62
2023/05/30 10:56:30;;;;;;;5.13;1.63;;;;;;;;;;5032201;28;20589;-61
2023/05/30 10:58:57;;;;;;;4.23;1.67;;;;;;;;;;5030686;28;20745;-61
2023/05/30 11:01:24;;;;;;;5.50;1.47;;;;;;;;;;5012206;28;20696;-62
2023/05/30 11:04:11;;;;;;;4.07;1.73;;;;;;;;;;5023657;28;20551;-62
2023/05/30 11:06:45;;;;;;;6.60;1.23;;;;;;;;;;5022640;28;20290;-61
2023/05/30 11:09:12;;;;;;;4.37;1.20;;;;;;;;;;5031672;28;20210;-63
2023/05/30 11:11:42;;;;;;;4.97;1.50;;;;;;;;;;5028263;28;20218;-61
2023/05/30 11:14:10;;;;;;;3.23;1.33;;;;;;;;;;5025914;28;20192;-61
2023/05/30 11:16:55;;;;;;;5.37;1.57;;;;;;;;;;5031327;28;20183;-62
2023/05/30 11:19:25;;;;;;;3.20;1.07;;;;;;;;;;5025875;28;20195;-61
2023/05/30 11:21:55;;;;;;;7.17;2.10;;;;;;;;;;5012487;28;20304;-61
2023/05/30 11:24:25;;;;;;;4.73;1.43;;;;;;;;;;5022544;28;20785;-60
2023/05/30 11:26:55;;;;;;;6.23;1.63;;;;;;;;;;5018680;28;20199;-60
2023/05/30 11:29:28;;;;;;;4.10;1.60;;;;;;;;;;5029750;28;20257;-64
2023/05/30 11:31:55;;;;;;;3.73;1.60;;;;;;;;;;5012152;28;20626;-63
2023/05/30 11:34:22;;;;;;;5.70;1.80;;;;;;;;;;5013458;28;20199;-61
2023/05/30 11:36:49;;;;;;;4.33;1.67;;;;;;;;;;5030021;28;20192;-60
2023/05/30 11:39:20;;;;;;;5.50;1.60;;;;;;;;;;5027125;28;20307;-63
2023/05/30 11:41:48;;;;;;;4.03;1.57;;;;;;;;;;5028449;28;20547;-62
2023/05/30 11:44:15;;;;;;;5.97;1.67;;;;;;;;;;5008382;28;20215;-63
2023/05/30 11:47:00;;;;;;;3.03;1.40;;;;;;;;;;5023168;28;20195;-63
2023/05/30 11:49:27;;;;;;;7.47;1.70;;;;;;;;;;5028774;28;20188;-64
2023/05/30 11:51:54;;;;;;;4.47;1.50;;;;;;;;;;5024284;28;20216;-63
2023/05/30 11:54:21;;;;;;;5.87;1.67;;;;;;;;;;5034067;28;20187;-63
2023/05/30 11:56:50;;;;;;;6.23;1.57;;;;;;;;;;5030893;28;20779;-63
2023/05/30 11:59:34;;;;;;;5.10;1.60;;;;;;;;;;5030296;28;20172;-62
2023/05/30 12:02:01;;;;;;;5.57;1.93;;;;;;;;;;5027199;28;20195;-62
2023/05/30 12:04:29;;;;;;;5.20;1.80;;;;;;;;;;5029019;28;20195;-62
2023/05/30 12:06:56;;;;;;;4.87;1.67;;;;;;;;;;5011279;28;20199;-61
2023/05/30 12:09:23;;;;;;;4.23;1.47;;;;;;;;;;5011582;28;20299;-62
2023/05/30 12:11:54;;;;;;;5.87;1.60;;;;;;;;;;4994612;28;20223;-62
2023/05/30 12:14:27;;;;;;;5.00;1.80;;;;;;;;;;5028554;28;20913;-63
2023/05/30 12:16:56;;;;;;;5.97;1.50;;;;;;;;;;5029340;28;20198;-62
2023/05/30 12:19:27;;;;;;;6.37;1.93;;;;;;;;;;5027281;28;20257;-62
2023/05/30 12:21:53;;;;;;;5.27;1.97;;;;;;;;;;5030724;28;20180;-61
2023/05/30 12:24:23;;;;;;;5.93;2.13;;;;;;;;;;5030563;28;20233;-61
2023/05/30 12:26:55;;;;;;;4.97;1.77;;;;;;;;;;5030613;28;20835;-61
2023/05/30 12:29:24;;;;;;;7.77;1.80;;;;;;;;;;5020096;28;20192;-61
2023/05/30 12:31:52;;;;;;;5.40;1.70;;;;;;;;;;5011951;28;20529;-61
2023/05/30 12:34:19;;;;;;;5.97;1.60;;;;;;;;;;5026865;28;20277;-61
2023/05/30 12:36:47;;;;;;;3.60;1.90;;;;;;;;;;5029903;28;20282;-61
2023/05/30 12:39:14;;;;;;;5.67;2.00;;;;;;;;;;5029815;28;20203;-61
2023/05/30 12:41:41;;;;;;;5.80;1.53;;;;;;;;;;5029279;28;20208;-60
2023/05/30 12:44:08;;;;;;;4.90;1.60;;;;;;;;;;5020532;28;20629;-61
2023/05/30 12:46:36;;;;;;;4.97;1.70;;;;;;;;;;5012357;28;20275;-61
2023/05/30 12:49:03;;;;;;;5.30;1.70;;;;;;;;;;5029081;28;20262;-61
2023/05/30 12:51:47;;;;;;;4.87;1.40;;;;;;;;;;5028845;28;20215;-61
2023/05/30 12:54:14;;;;;;;5.00;1.77;;;;;;;;;;5037811;28;20191;-61
2023/05/30 12:56:41;;;;;;;5.30;1.40;;;;;;;;;;5031616;28;20191;-61
2023/05/30 12:59:07;;;;;;;5.33;1.93;;;;;;;;;;5016774;28;20198;-62
2023/05/30 13:01:34;;;;;;;3.67;1.80;;;;;;;;;;5017397;28;20734;-62
2023/05/30 13:04:19;;;;;;;7.53;1.80;;;;;;;;;;5027751;28;20672;-61
2023/05/30 13:06:45;;;;;;;5.20;1.40;;;;;;;;;;5018259;28;20192;-61
2023/05/30 13:09:34;;;;;;;3.63;1.50;;;;;;;;;;5022231;28;20179;-61
2023/05/30 13:12:03;;;;;;;3.90;1.47;;;;;;;;;;5023510;28;20284;-62
2023/05/30 13:14:30;;;;;;;4.83;1.53;;;;;;;;;;5012330;28;20747;-60
2023/05/30 13:16:57;;;;;;;6.33;1.30;;;;;;;;;;5027533;28;20186;-61
2023/05/30 13:19:26;;;;;;;3.27;1.43;;;;;;;;;;5029768;28;20195;-60
2023/05/30 13:21:53;;;;;;;3.40;1.60;;;;;;;;;;5027102;28;20201;-60
2023/05/30 13:24:19;;;;;;;3.37;1.47;;;;;;;;;;5028297;28;20768;-61
2023/05/30 13:26:46;;;;;;;2.77;1.30;;;;;;;;;;5028011;28;20202;-61
2023/05/30 13:29:13;;;;;;;4.67;1.90;;;;;;;;;;5015752;28;20210;-61
2023/05/30 13:31:40;;;;;;;5.23;1.90;;;;;;;;;;5012217;28;20290;-61
2023/05/30 13:34:07;;;;;;;8.07;1.80;;;;;;;;;;5029746;28;20187;-61
2023/05/30 13:36:35;;;;;;;7.90;2.17;;;;;;;;;;5030277;28;20187;-61
2023/05/30 13:39:03;;;;;;;3.63;1.70;;;;;;;;;;5028860;28;20578;-61
2023/05/30 13:41:29;;;;;;;4.90;1.67;;;;;;;;;;5029852;28;20191;-61
2023/05/30 13:43:57;;;;;;;5.30;1.70;;;;;;;;;;5029725;28;20192;-61
2023/05/30 13:46:24;;;;;;;3.47;1.67;;;;;;;;;;5029709;28;20230;-61
2023/05/30 13:48:52;;;;;;;8.23;1.90;;;;;;;;;;5030099;28;20730;-61
2023/05/30 13:51:37;;;;;;;4.00;1.80;;;;;;;;;;5030150;28;20256;-62
2023/05/30 13:54:04;;;;;;;3.70;1.37;;;;;;;;;;5019849;28;20266;-61
2023/05/30 13:56:31;;;;;;;5.70;1.37;;;;;;;;;;5032486;28;20724;-61
2023/05/30 13:58:58;;;;;;;3.80;1.50;;;;;;;;;;5012116;28;20219;-61
2023/05/30 14:01:26;;;;;;;4.73;1.50;;;;;;;;;;5030117;28;20218;-62
2023/05/30 14:03:53;;;;;;;6.17;1.30;;;;;;;;;;5030054;28;20199;-62
2023/05/30 14:06:19;;;;;;;5.90;1.50;;;;;;;;;;5030174;28;20249;-62
2023/05/30 14:08:46;;;;;;;4.30;1.40;;;;;;;;;;5029925;28;20254;-61
2023/05/30 14:11:13;;;;;;;5.50;1.87;;;;;;;;;;5028710;28;20684;-61
2023/05/30 14:13:41;;;;;;;4.00;1.40;;;;;;;;;;5029993;28;20187;-60
2023/05/30 14:16:08;;;;;;;3.60;1.40;;;;;;;;;;5029640;28;20227;-60
2023/05/30 14:18:37;;;;;;;8.83;2.10;;;;;;;;;;5029126;28;20680;-61
2023/05/30 14:21:03;;;;;;;19.77;2.97;;;;;;;;;;5029362;28;20188;-60
2023/05/30 14:23:31;;;;;;;5.33;1.20;;;;;;;;;;5029338;28;20287;-60
2023/05/30 14:25:58;;;;;;;14.10;2.30;;;;;;;;;;5029768;28;20254;-60
2023/05/30 14:28:25;;;;;;;4.87;1.40;;;;;;;;;;5029844;28;20254;-60
2023/05/30 14:30:52;;;;;;;4.13;1.17;;;;;;;;;;5029164;28;20281;-61
2023/05/30 14:33:19;;;;;;;3.50;1.03;;;;;;;;;;5030681;28;20214;-61
2023/05/30 14:35:46;;;;;;;5.97;1.10;;;;;;;;;;5015061;28;20257;-62
2023/05/30 14:38:12;;;;;;;5.63;1.37;;;;;;;;;;5033401;28;20187;-62
2023/05/30 14:40:57;;;;;;;10.23;2.07;;;;;;;;;;5033403;28;20179;-61
2023/05/30 14:43:23;;;;;;;7.47;1.80;;;;;;;;;;5033575;28;20183;-61
2023/05/30 14:45:50;;;;;;;7.20;1.40;;;;;;;;;;5032988;28;20266;-61
2023/05/30 14:48:17;;;;;;;3.13;1.10;;;;;;;;;;5015267;28;20180;-61
2023/05/30 14:50:44;;;;;;;3.17;1.00;;;;;;;;;;5032947;28;20262;-61
2023/05/30 14:53:11;;;;;;;5.70;1.50;;;;;;;;;;5033145;28;20222;-61
2023/05/30 14:55:37;;;;;;;5.23;1.50;;;;;;;;;;5042936;28;20250;-62
2023/05/30 14:58:04;;;;;;;5.93;1.73;;;;;;;;;;5033084;28;20187;-61
2023/05/30 15:01:10;;;;;;;3.33;1.43;;;;;;;;;;4966245;28;20198;-61
2023/05/30 15:03:57;;;;;;;5.27;1.80;;;;;;;;;;5018683;28;20195;-61
2023/05/30 15:06:41;;;;;;;8.73;2.13;;;;;;;;;;5032245;28;20171;-61
2023/05/30 15:09:08;;;;;;;5.27;1.60;;;;;;;;;;5032483;28;20195;-61
2023/05/30 15:11:35;;;;;;;5.13;1.30;;;;;;;;;;5032127;28;22052;-61
2023/05/30 15:14:02;;;;;;;4.93;1.30;;;;;;;;;;5032569;28;20191;-61
2023/05/30 15:16:29;;;;;;;3.27;1.10;;;;;;;;;;5032951;28;20188;-61
2023/05/30 15:19:14;;;;;;;5.70;2.17;;;;;;;;;;5020874;28;20310;-61
2023/05/30 15:21:41;;;;;;;4.33;1.40;;;;;;;;;;5031927;28;20265;-61
2023/05/30 15:24:08;;;;;;;5.70;1.30;;;;;;;;;;5031946;28;20223;-62
2023/05/30 15:26:35;;;;;;;4.03;1.70;;;;;;;;;;5032217;28;20283;-61